createdAt,value
2023-05-20T00:02:05.931Z,9.21
2023-05-20T00:07:08.622Z,9.19
2023-05-20T00:12:11.345Z,9.14
2023-05-20T00:17:14.155Z,9.09
2023-05-20T00:22:16.820Z,9.10
2023-05-20T00:27:19.621Z,9.16
2023-05-20T00:32:22.345Z,9.20
2023-05-20T00:37:25.420Z,9.19
2023-05-20T00:42:29.179Z,9.25
2023-05-20T00:47:34.515Z,9.22
2023-05-20T00:52:37.784Z,9.19
2023-05-20T00:57:41.029Z,9.27
2023-05-20T01:02:44.092Z,9.24
2023-05-20T01:07:47.149Z,9.24
2023-05-20T01:12:54.846Z,9.24
2023-05-20T01:18:06.281Z,9.19
2023-05-20T01:23:09.197Z,9.13
2023-05-20T01:28:18.155Z,9.21
2023-05-20T01:33:24.616Z,9.21
2023-05-20T01:38:27.587Z,9.20
2023-05-20T01:43:30.821Z,9.24
2023-05-20T01:48:33.645Z,9.17
2023-05-20T01:53:36.528Z,9.13
2023-05-20T01:58:39.411Z,9.17
2023-05-20T02:03:42.273Z,9.14
2023-05-20T02:08:44.979Z,9.17
2023-05-20T02:13:47.946Z,9.22
2023-05-20T02:18:53.249Z,9.20
2023-05-20T02:23:56.146Z,9.25
2023-05-20T02:28:58.947Z,9.27
2023-05-20T02:34:01.846Z,9.34
2023-05-20T02:39:04.687Z,9.45
2023-05-20T02:44:07.498Z,9.53
2023-05-20T02:49:10.394Z,9.54
2023-05-20T02:54:13.120Z,9.53
2023-05-20T02:59:16.214Z,9.59
2023-05-20T03:04:19.425Z,9.57
2023-05-20T03:09:22.161Z,9.56
2023-05-20T03:14:24.947Z,9.55
2023-05-20T03:19:27.759Z,9.71
2023-05-20T03:24:30.628Z,9.81
2023-05-20T03:29:33.781Z,9.85
2023-05-20T03:34:37.019Z,9.99
2023-05-20T03:39:41.514Z,9.96
2023-05-20T03:44:44.622Z,9.72
2023-05-20T03:49:47.462Z,9.79
2023-05-20T03:54:50.319Z,9.81
2023-05-20T03:59:53.104Z,10.00
2023-05-20T04:04:57.890Z,10.07
2023-05-20T04:10:00.908Z,10.15
2023-05-20T04:15:07.318Z,10.32
2023-05-20T04:20:22.157Z,10.43
2023-05-20T04:25:27.609Z,10.50
2023-05-20T04:30:33.616Z,10.53
2023-05-20T04:35:38.372Z,10.45
2023-05-20T04:40:42.475Z,10.42
2023-05-20T04:45:45.997Z,10.80
2023-05-20T04:50:50.281Z,11.15
2023-05-20T04:55:57.189Z,11.46
2023-05-20T05:01:01.642Z,11.51
2023-05-20T05:06:04.826Z,11.64
2023-05-20T05:11:08.009Z,11.74
2023-05-20T05:16:10.969Z,11.99
2023-05-20T05:21:13.953Z,12.37
2023-05-20T05:26:17.751Z,12.45
2023-05-20T05:31:20.936Z,12.45
2023-05-20T05:36:26.103Z,12.82
2023-05-20T05:41:29.044Z,13.19
2023-05-20T05:46:33.830Z,13.39
2023-05-20T05:51:38.779Z,13.08
2023-05-20T05:56:42.192Z,13.07
2023-05-20T06:01:45.113Z,13.44
2023-05-20T06:06:48.638Z,13.86
2023-05-20T06:11:52.232Z,13.96
2023-05-20T06:16:55.034Z,13.90
2023-05-20T06:22:00.846Z,14.10
2023-05-20T06:27:04.310Z,13.98
2023-05-20T06:32:07.476Z,14.64
2023-05-20T06:37:11.542Z,14.74
2023-05-20T06:42:14.331Z,14.65
2023-05-20T06:47:23.599Z,14.58
2023-05-20T06:52:28.076Z,14.76
2023-05-20T06:57:31.570Z,14.70
2023-05-20T07:02:34.695Z,14.51
2023-05-20T07:07:37.673Z,14.19
2023-05-20T07:12:40.600Z,14.44
2023-05-20T07:17:43.485Z,14.78
2023-05-20T07:22:47.877Z,15.16
2023-05-20T07:27:56.937Z,15.08
2023-05-20T07:32:59.760Z,14.36
2023-05-20T07:38:03.011Z,14.91
2023-05-20T07:43:07.844Z,15.15
2023-05-20T07:48:11.158Z,15.19
2023-05-20T07:53:14.156Z,15.39
2023-05-20T07:58:17.080Z,15.96
2023-05-20T08:03:22.567Z,15.83
2023-05-20T08:08:34.842Z,15.70
2023-05-20T08:13:44.155Z,15.65
2023-05-20T08:18:48.019Z,16.23
2023-05-20T08:23:56.118Z,15.99
2023-05-20T08:28:59.021Z,16.10
2023-05-20T08:34:01.900Z,15.61
2023-05-20T08:39:04.810Z,15.20
2023-05-20T08:44:10.752Z,15.01
2023-05-20T08:49:14.984Z,15.32
2023-05-20T08:54:20.591Z,15.63
2023-05-20T08:59:23.595Z,15.75
2023-05-20T09:04:26.250Z,15.61
2023-05-20T09:09:30.336Z,15.39
2023-05-20T09:14:33.009Z,15.78
2023-05-20T09:19:35.985Z,15.52
2023-05-20T09:24:38.783Z,15.62
2023-05-20T09:29:41.770Z,16.15
2023-05-20T09:34:47.681Z,16.27
2023-05-20T09:40:00.556Z,16.11
2023-05-20T09:45:04.576Z,16.20
2023-05-20T09:50:09.417Z,16.14
2023-05-20T09:55:12.244Z,15.32
2023-05-20T10:00:17.806Z,15.40
2023-05-20T10:05:24.438Z,15.68
2023-05-20T10:10:46.190Z,15.30
2023-05-20T10:16:02.057Z,15.08
2023-05-20T10:21:16.722Z,14.95
2023-05-20T10:26:20.084Z,14.41
2023-05-20T10:31:23.732Z,13.96
2023-05-20T10:36:32.029Z,13.59
2023-05-20T10:41:35.015Z,13.73
2023-05-20T10:46:54.004Z,13.94
2023-05-20T10:52:00.866Z,14.03
2023-05-20T10:57:10.552Z,14.10
2023-05-20T11:02:16.174Z,14.20
2023-05-20T11:07:26.752Z,14.63
2023-05-20T11:12:29.590Z,15.02
2023-05-20T11:17:32.349Z,15.21
2023-05-20T11:22:35.105Z,15.31
2023-05-20T11:27:41.484Z,15.54
2023-05-20T11:33:04.621Z,15.55
2023-05-20T11:38:10.570Z,15.49
2023-05-20T11:43:15.723Z,15.16
2023-05-20T11:48:19.971Z,14.98
2023-05-20T11:53:24.461Z,14.62
2023-05-20T11:58:29.830Z,14.28
2023-05-20T12:03:33.169Z,14.23
2023-05-20T12:08:36.475Z,14.28
2023-05-20T12:13:40.370Z,14.28
2023-05-20T12:18:43.173Z,14.55
2023-05-20T12:23:46.059Z,14.57
2023-05-20T12:28:48.769Z,14.88
2023-05-20T12:33:51.585Z,15.06
2023-05-20T12:38:54.459Z,15.50
2023-05-20T12:43:57.466Z,15.33
2023-05-20T12:49:00.261Z,15.09
2023-05-20T12:54:02.977Z,14.51
2023-05-20T12:59:05.955Z,14.28
2023-05-20T13:04:09.165Z,14.18
2023-05-20T13:09:12.714Z,14.29
2023-05-20T13:14:16.956Z,14.27
2023-05-20T13:19:23.415Z,14.22
2023-05-20T13:24:26.216Z,14.12
2023-05-20T13:29:29.256Z,14.46
2023-05-20T13:34:32.127Z,14.63
2023-05-20T13:39:34.919Z,14.52
2023-05-20T13:44:37.679Z,14.61
2023-05-20T13:49:40.389Z,14.43
2023-05-20T13:54:44.828Z,14.33
2023-05-20T13:59:47.627Z,14.21
2023-05-20T14:04:50.403Z,14.06
2023-05-20T14:09:53.191Z,14.04
2023-05-20T14:14:56.558Z,14.10
2023-05-20T14:20:00.799Z,14.25
2023-05-20T14:25:04.159Z,14.24
2023-05-20T14:30:07.686Z,14.56
2023-05-20T14:35:10.567Z,14.75
2023-05-20T14:40:13.678Z,14.67
2023-05-20T14:45:16.551Z,14.53
2023-05-20T14:50:19.257Z,14.58
2023-05-20T14:55:21.911Z,14.20
2023-05-20T15:00:24.827Z,14.38
2023-05-20T15:05:27.548Z,14.36
2023-05-20T15:10:30.271Z,14.08
2023-05-20T15:15:33.909Z,13.88
2023-05-20T15:20:36.856Z,13.83
2023-05-20T15:25:39.542Z,13.81
2023-05-20T15:30:42.221Z,14.03
2023-05-20T15:35:45.128Z,14.08
2023-05-20T15:40:50.511Z,14.46
2023-05-20T15:45:54.348Z,14.68
2023-05-20T15:50:57.155Z,14.78
2023-05-20T15:56:00.154Z,14.92
2023-05-20T16:01:02.876Z,14.66
2023-05-20T16:06:05.729Z,14.44
2023-05-20T16:11:08.616Z,14.12
2023-05-20T16:16:13.665Z,14.04
2023-05-20T16:21:16.675Z,13.91
2023-05-20T16:26:19.625Z,13.94
2023-05-20T16:31:22.426Z,13.83
2023-05-20T16:36:26.065Z,13.66
2023-05-20T16:41:28.855Z,13.64
2023-05-20T16:46:31.600Z,13.57
2023-05-20T16:51:34.409Z,13.45
2023-05-20T16:56:37.254Z,13.36
2023-05-20T17:01:40.160Z,13.22
2023-05-20T17:06:42.905Z,13.20
2023-05-20T17:11:45.615Z,13.02
2023-05-20T17:16:48.295Z,12.90
2023-05-20T17:21:51.133Z,12.82
2023-05-20T17:26:53.770Z,12.69
2023-05-20T17:31:56.650Z,12.33
2023-05-20T17:36:59.418Z,12.15
2023-05-20T17:42:03.033Z,12.07
2023-05-20T17:47:05.746Z,11.92
2023-05-20T17:52:08.536Z,11.97
2023-05-20T17:57:11.298Z,11.90
2023-05-20T18:02:14.104Z,11.61
2023-05-20T18:07:17.887Z,11.20
2023-05-20T18:12:20.687Z,11.02
2023-05-20T18:17:23.458Z,10.85
2023-05-20T18:22:27.173Z,10.80
2023-05-20T18:27:29.867Z,10.73
2023-05-20T18:32:32.614Z,10.77
2023-05-20T18:37:35.717Z,10.72
2023-05-20T18:42:38.563Z,10.65
2023-05-20T18:47:41.815Z,10.78
2023-05-20T18:52:44.575Z,10.73
2023-05-20T18:57:47.528Z,10.75
2023-05-20T19:02:50.265Z,10.70
2023-05-20T19:07:53.060Z,10.51
2023-05-20T19:12:56.242Z,10.44
2023-05-20T19:17:59.109Z,10.34
2023-05-20T19:23:02.027Z,10.25
2023-05-20T19:28:05.075Z,10.26
2023-05-20T19:33:07.815Z,10.21
2023-05-20T19:38:10.917Z,10.21
2023-05-20T19:43:13.684Z,10.23
2023-05-20T19:48:16.866Z,10.22
2023-05-20T19:53:21.027Z,10.26
2023-05-20T19:58:23.837Z,10.31
2023-05-20T20:03:26.578Z,10.33
2023-05-20T20:08:29.271Z,10.28
2023-05-20T20:13:31.931Z,10.25
2023-05-20T20:18:35.332Z,10.23
2023-05-20T20:23:38.094Z,10.19
2023-05-20T20:28:40.779Z,10.14
2023-05-20T20:33:44.097Z,10.11
2023-05-20T20:38:47.276Z,10.04
2023-05-20T20:43:50.705Z,10.00
2023-05-20T20:48:54.389Z,9.99
2023-05-20T20:53:57.171Z,10.10
2023-05-20T20:59:00.421Z,10.14
2023-05-20T21:04:04.618Z,10.07
2023-05-20T21:09:07.572Z,9.97
2023-05-20T21:14:10.868Z,10.07
2023-05-20T21:19:13.456Z,10.10
2023-05-20T21:24:16.099Z,10.02
2023-05-20T21:29:18.657Z,10.01
2023-05-20T21:34:21.268Z,10.02
2023-05-20T21:39:23.830Z,9.96
2023-05-20T21:44:26.616Z,9.90
2023-05-20T21:49:29.258Z,9.83
2023-05-20T21:54:31.828Z,9.72
2023-05-20T21:59:34.425Z,9.66
2023-05-20T22:04:37.403Z,9.67
2023-05-20T22:09:40.005Z,9.56
2023-05-20T22:14:42.629Z,9.45
2023-05-20T22:19:45.278Z,9.39
2023-05-20T22:24:47.859Z,9.40
2023-05-20T22:29:50.990Z,9.36
2023-05-20T22:34:53.799Z,9.35
2023-05-20T22:39:56.781Z,9.36
2023-05-20T22:44:59.585Z,9.39
2023-05-20T22:50:03.264Z,9.29
2023-05-20T22:55:09.084Z,9.30
2023-05-20T23:00:14.215Z,9.38
2023-05-20T23:05:17.407Z,9.30
2023-05-20T23:10:20.464Z,9.33
2023-05-20T23:15:24.427Z,9.43
2023-05-20T23:20:29.676Z,9.49
2023-05-20T23:25:32.619Z,9.61
2023-05-20T23:30:36.220Z,9.49
2023-05-20T23:35:38.941Z,9.63
2023-05-20T23:40:41.601Z,9.57
2023-05-20T23:45:44.294Z,9.63
2023-05-20T23:50:47.015Z,9.59
2023-05-20T23:55:49.831Z,9.63
